Time;durP1;ratioP1;P1;durP2;ratioP2;P2;SDS_P1;SDS_P2;PMS_P1;PMS_P2;Temp;Humidity;BMP_temperature;BMP_pressure;BME280_temperature;BME280_humidity;BME280_pressure;Samples;Min_cycle;Max_cycle;Signal;HPM_P1;HPM_P2
2020/12/22 00:00:26;;;;;;;6.78;4.53;;;;;;;;;;4348043;33;20213;-76
2020/12/22 00:02:51;;;;;;;4.75;4.07;;;;;;;;;;4348400;33;20238;-76
2020/12/22 00:05:16;;;;;;;5.25;4.30;;;;;;;;;;4348359;33;20540;-77
2020/12/22 00:07:42;;;;;;;5.65;4.47;;;;;;;;;;4347876;33;20270;-77
2020/12/22 00:10:09;;;;;;;7.25;4.25;;;;;;;;;;4348604;33;20593;-76
2020/12/22 00:12:35;;;;;;;5.28;4.10;;;;;;;;;;4347709;33;20159;-77
2020/12/22 00:15:00;;;;;;;5.85;3.92;;;;;;;;;;4347914;33;20186;-78
2020/12/22 00:17:29;;;;;;;7.18;3.58;;;;;;;;;;4347222;33;20162;-78
2020/12/22 00:19:54;;;;;;;5.37;3.80;;;;;;;;;;4361047;33;20506;-77
2020/12/22 00:22:19;;;;;;;4.28;3.40;;;;;;;;;;4348032;33;20225;-78
2020/12/22 00:24:44;;;;;;;5.07;3.60;;;;;;;;;;4347813;33;20198;-78
2020/12/22 00:27:10;;;;;;;3.55;3.25;;;;;;;;;;4361062;33;20139;-78
2020/12/22 00:29:35;;;;;;;3.97;3.42;;;;;;;;;;4347441;33;20210;-77
2020/12/22 00:32:00;;;;;;;5.20;3.30;;;;;;;;;;4349402;32;20230;-77
2020/12/22 00:34:35;;;;;;;7.82;4.28;;;;;;;;;;4348364;33;20186;-77
2020/12/22 00:37:00;;;;;;;5.70;3.40;;;;;;;;;;4347583;33;20170;-77
2020/12/22 00:39:28;;;;;;;5.10;3.92;;;;;;;;;;4347660;33;20250;-78
2020/12/22 00:41:54;;;;;;;4.85;2.95;;;;;;;;;;4360904;32;20166;-78
2020/12/22 00:44:20;;;;;;;5.10;3.30;;;;;;;;;;4344816;33;20171;-77
2020/12/22 00:46:45;;;;;;;5.30;3.50;;;;;;;;;;4343128;33;20313;-77
2020/12/22 00:49:10;;;;;;;6.72;3.33;;;;;;;;;;4347218;33;20166;-78
2020/12/22 00:51:36;;;;;;;4.78;3.97;;;;;;;;;;4347448;33;20163;-77
2020/12/22 00:54:01;;;;;;;5.32;3.83;;;;;;;;;;4347348;33;20215;-78
2020/12/22 00:56:26;;;;;;;4.47;3.08;;;;;;;;;;4347141;33;20247;-79
2020/12/22 00:58:51;;;;;;;4.85;3.75;;;;;;;;;;4347719;33;20167;-77
2020/12/22 01:01:16;;;;;;;3.37;3.08;;;;;;;;;;4347604;33;20504;-77
2020/12/22 01:03:42;;;;;;;4.20;3.03;;;;;;;;;;4347244;33;20163;-78
2020/12/22 01:06:07;;;;;;;3.40;2.97;;;;;;;;;;4360693;32;20177;-78
2020/12/22 01:08:32;;;;;;;3.03;2.28;;;;;;;;;;4347719;33;20185;-78
2020/12/22 01:10:59;;;;;;;4.15;2.65;;;;;;;;;;4347112;33;20167;-77
2020/12/22 01:13:24;;;;;;;2.42;2.17;;;;;;;;;;4360673;32;20173;-78
2020/12/22 01:15:49;;;;;;;3.55;2.60;;;;;;;;;;4346966;33;20171;-78
2020/12/22 01:18:15;;;;;;;3.83;2.50;;;;;;;;;;4347207;33;20625;-78
2020/12/22 01:20:40;;;;;;;3.05;2.50;;;;;;;;;;4346877;33;20596;-78
2020/12/22 01:23:05;;;;;;;4.45;2.87;;;;;;;;;;4346896;33;20206;-78
2020/12/22 01:25:30;;;;;;;4.15;3.03;;;;;;;;;;4347432;33;20162;-78
2020/12/22 01:27:56;;;;;;;3.95;2.78;;;;;;;;;;4346247;33;20593;-79
2020/12/22 01:30:21;;;;;;;3.70;2.85;;;;;;;;;;4360280;32;20151;-77
2020/12/22 01:32:47;;;;;;;3.92;2.97;;;;;;;;;;4346748;33;20163;-77
2020/12/22 01:35:12;;;;;;;2.72;2.20;;;;;;;;;;4346937;33;20177;-77
2020/12/22 01:37:37;;;;;;;4.30;2.30;;;;;;;;;;4360467;33;20210;-78
2020/12/22 01:40:02;;;;;;;4.87;2.57;;;;;;;;;;4360567;32;20143;-77
2020/12/22 01:42:28;;;;;;;3.28;2.05;;;;;;;;;;4346631;33;20726;-79
2020/12/22 01:44:53;;;;;;;5.50;1.98;;;;;;;;;;4359067;32;20166;-78
2020/12/22 01:47:20;;;;;;;2.50;2.20;;;;;;;;;;4359402;32;20193;-78
2020/12/22 01:49:48;;;;;;;2.28;1.90;;;;;;;;;;4361230;32;20158;-77
2020/12/22 01:52:19;;;;;;;2.33;2.12;;;;;;;;;;4361403;32;20165;-77
2020/12/22 01:54:45;;;;;;;3.55;2.70;;;;;;;;;;4346539;33;20167;-79
2020/12/22 01:57:11;;;;;;;3.50;1.65;;;;;;;;;;4346807;33;20544;-78
2020/12/22 01:59:36;;;;;;;5.43;2.10;;;;;;;;;;4346651;33;20678;-79
2020/12/22 02:02:01;;;;;;;3.47;1.90;;;;;;;;;;4346822;33;20163;-79
2020/12/22 02:04:27;;;;;;;4.37;2.37;;;;;;;;;;4346769;33;20194;-78
2020/12/22 02:06:52;;;;;;;2.90;1.83;;;;;;;;;;4347550;33;20183;-78
2020/12/22 02:09:18;;;;;;;2.90;1.83;;;;;;;;;;4348775;33;20193;-79
2020/12/22 02:11:43;;;;;;;6.12;1.90;;;;;;;;;;4349314;33;20548;-77
2020/12/22 02:14:09;;;;;;;4.75;1.83;;;;;;;;;;4360222;33;20134;-78
2020/12/22 02:16:35;;;;;;;3.53;1.90;;;;;;;;;;4346679;33;20171;-78
2020/12/22 02:19:00;;;;;;;6.35;1.87;;;;;;;;;;4346717;33;20186;-78
2020/12/22 02:21:25;;;;;;;3.78;1.73;;;;;;;;;;4346378;33;20206;-78
2020/12/22 02:23:54;;;;;;;3.75;1.80;;;;;;;;;;4347243;33;20179;-77
2020/12/22 02:26:19;;;;;;;5.93;1.50;;;;;;;;;;4346680;33;20222;-78
2020/12/22 02:28:45;;;;;;;5.93;1.35;;;;;;;;;;4346521;33;20221;-77
2020/12/22 02:31:10;;;;;;;4.62;1.40;;;;;;;;;;4346773;33;20522;-80
2020/12/22 02:33:35;;;;;;;3.03;1.02;;;;;;;;;;4360328;33;20192;-78
2020/12/22 02:36:11;;;;;;;7.12;1.40;;;;;;;;;;4358549;33;20193;-79
2020/12/22 02:38:36;;;;;;;2.92;1.30;;;;;;;;;;4360446;32;20535;-78
2020/12/22 02:41:02;;;;;;;3.87;1.10;;;;;;;;;;4349079;33;20163;-80
2020/12/22 02:43:27;;;;;;;4.45;1.30;;;;;;;;;;4349041;33;20208;-78
2020/12/22 02:45:53;;;;;;;5.62;1.45;;;;;;;;;;4362906;32;20143;-78
2020/12/22 02:48:18;;;;;;;5.47;1.50;;;;;;;;;;4348907;33;20480;-79
2020/12/22 02:50:52;;;;;;;4.97;1.45;;;;;;;;;;4362006;32;20542;-78
2020/12/22 02:53:18;;;;;;;5.95;1.40;;;;;;;;;;4350201;33;20197;-78
2020/12/22 02:55:44;;;;;;;7.05;1.70;;;;;;;;;;4362830;32;20203;-79
2020/12/22 02:58:09;;;;;;;8.02;1.58;;;;;;;;;;4349772;33;20421;-79
2020/12/22 03:00:34;;;;;;;6.03;1.87;;;;;;;;;;4349376;33;20626;-79
2020/12/22 03:03:00;;;;;;;8.15;1.90;;;;;;;;;;4363519;32;20162;-79
2020/12/22 03:05:25;;;;;;;9.07;2.20;;;;;;;;;;4349445;33;20237;-79
2020/12/22 03:07:51;;;;;;;9.48;1.75;;;;;;;;;;4349107;33;20502;-79
2020/12/22 03:10:17;;;;;;;6.12;2.05;;;;;;;;;;4348721;33;20503;-78
2020/12/22 03:12:42;;;;;;;10.57;2.00;;;;;;;;;;4348317;33;20242;-78
2020/12/22 03:15:09;;;;;;;9.88;1.80;;;;;;;;;;4349376;33;20167;-78
2020/12/22 03:17:35;;;;;;;7.18;2.25;;;;;;;;;;4348820;33;20171;-78
2020/12/22 03:20:00;;;;;;;14.68;2.20;;;;;;;;;;4362499;32;20612;-78
2020/12/22 03:22:26;;;;;;;9.65;2.00;;;;;;;;;;4348595;33;20206;-78
2020/12/22 03:24:51;;;;;;;8.50;1.65;;;;;;;;;;4348624;33;20282;-78
2020/12/22 03:27:16;;;;;;;9.27;1.73;;;;;;;;;;4348629;33;20158;-79
2020/12/22 03:29:42;;;;;;;6.55;1.55;;;;;;;;;;4348341;33;20193;-79
2020/12/22 03:32:08;;;;;;;9.75;1.60;;;;;;;;;;4348697;33;20572;-78
2020/12/22 03:34:34;;;;;;;7.93;1.48;;;;;;;;;;4362477;32;20154;-78
2020/12/22 03:36:59;;;;;;;5.62;1.60;;;;;;;;;;4349340;33;20597;-78
2020/12/22 03:39:25;;;;;;;8.10;1.73;;;;;;;;;;4348574;33;20159;-78
2020/12/22 03:41:50;;;;;;;9.60;2.05;;;;;;;;;;4348515;33;20162;-78
2020/12/22 03:44:15;;;;;;;8.93;1.98;;;;;;;;;;4348596;33;20194;-78
2020/12/22 03:46:49;;;;;;;10.82;2.20;;;;;;;;;;4348305;33;20174;-78
2020/12/22 03:49:15;;;;;;;8.50;2.10;;;;;;;;;;4348982;33;20668;-79
2020/12/22 03:51:40;;;;;;;7.30;1.80;;;;;;;;;;4347418;33;20241;-78
2020/12/22 03:54:05;;;;;;;14.65;2.30;;;;;;;;;;4348441;33;20206;-78
2020/12/22 03:56:31;;;;;;;7.75;2.15;;;;;;;;;;4348079;33;20190;-79
2020/12/22 03:58:56;;;;;;;7.15;1.60;;;;;;;;;;4348963;33;20600;-78
2020/12/22 04:01:21;;;;;;;16.58;2.20;;;;;;;;;;4348051;33;20166;-78
2020/12/22 04:03:47;;;;;;;10.18;1.65;;;;;;;;;;4348062;33;20175;-78
2020/12/22 04:06:12;;;;;;;11.00;2.08;;;;;;;;;;4348379;33;20580;-78
2020/12/22 04:08:37;;;;;;;7.05;1.80;;;;;;;;;;4348015;33;20185;-78
2020/12/22 04:11:02;;;;;;;6.25;1.80;;;;;;;;;;4347986;33;20220;-78
2020/12/22 04:13:27;;;;;;;8.90;1.55;;;;;;;;;;4348205;33;20171;-77
2020/12/22 04:15:53;;;;;;;7.93;1.85;;;;;;;;;;4361363;33;20140;-78
2020/12/22 04:18:18;;;;;;;10.20;1.40;;;;;;;;;;4348153;33;20233;-78
2020/12/22 04:20:44;;;;;;;8.82;1.60;;;;;;;;;;4348218;33;20484;-78
2020/12/22 04:23:12;;;;;;;7.03;1.50;;;;;;;;;;4347728;33;20176;-78
2020/12/22 04:25:37;;;;;;;15.10;2.10;;;;;;;;;;4361379;33;20140;-79
2020/12/22 04:28:02;;;;;;;11.25;2.03;;;;;;;;;;4348259;33;20178;-78
2020/12/22 04:30:28;;;;;;;13.38;2.28;;;;;;;;;;4347650;33;20163;-79
2020/12/22 04:32:53;;;;;;;8.75;1.85;;;;;;;;;;4361455;32;20174;-79
2020/12/22 04:35:18;;;;;;;10.65;1.62;;;;;;;;;;4347626;33;20561;-78
2020/12/22 04:37:44;;;;;;;11.60;1.70;;;;;;;;;;4361659;32;20143;-79
2020/12/22 04:40:09;;;;;;;10.40;2.05;;;;;;;;;;4348148;33;20159;-79
2020/12/22 04:42:34;;;;;;;10.35;1.80;;;;;;;;;;4347517;33;20167;-79
2020/12/22 04:45:00;;;;;;;11.38;1.87;;;;;;;;;;4347646;33;20167;-79
2020/12/22 04:47:26;;;;;;;10.68;2.08;;;;;;;;;;4361697;32;20675;-79
2020/12/22 04:49:54;;;;;;;5.43;1.40;;;;;;;;;;4347385;33;20167;-79
2020/12/22 04:52:21;;;;;;;9.23;1.58;;;;;;;;;;4347738;33;20190;-79
2020/12/22 04:54:46;;;;;;;7.82;1.70;;;;;;;;;;4347344;33;20227;-79
2020/12/22 04:57:14;;;;;;;12.20;2.45;;;;;;;;;;4347425;33;20167;-79
2020/12/22 04:59:43;;;;;;;10.27;1.70;;;;;;;;;;4348236;33;20162;-78
2020/12/22 05:02:08;;;;;;;9.00;1.70;;;;;;;;;;4348615;33;20155;-80
2020/12/22 05:04:34;;;;;;;10.43;2.08;;;;;;;;;;4346985;33;20217;-80
2020/12/22 05:07:00;;;;;;;8.88;1.60;;;;;;;;;;4361065;32;20204;-81
2020/12/22 05:09:28;;;;;;;9.93;1.85;;;;;;;;;;4347176;33;20198;-81
2020/12/22 05:11:55;;;;;;;7.43;1.60;;;;;;;;;;4360875;32;20259;-78
2020/12/22 05:14:20;;;;;;;10.88;1.80;;;;;;;;;;4347504;33;20155;-79
2020/12/22 05:16:46;;;;;;;6.47;1.55;;;;;;;;;;4344718;33;20228;-79
2020/12/22 05:19:11;;;;;;;8.90;1.55;;;;;;;;;;4344833;33;20221;-79
2020/12/22 05:21:37;;;;;;;8.50;1.70;;;;;;;;;;4332119;33;20171;-79
2020/12/22 05:24:05;;;;;;;7.78;1.60;;;;;;;;;;4332039;33;20179;-79
2020/12/22 05:26:32;;;;;;;10.75;1.80;;;;;;;;;;4332558;33;20191;-79
2020/12/22 05:29:06;;;;;;;7.22;1.27;;;;;;;;;;4332010;33;20226;-79
2020/12/22 05:31:34;;;;;;;8.60;1.60;;;;;;;;;;4332788;33;20189;-79
2020/12/22 05:33:59;;;;;;;8.82;1.42;;;;;;;;;;4332229;33;20167;-79
2020/12/22 05:36:25;;;;;;;10.98;1.98;;;;;;;;;;4333217;33;20198;-79
2020/12/22 05:38:51;;;;;;;11.65;2.00;;;;;;;;;;4347042;33;20584;-79
2020/12/22 05:41:19;;;;;;;7.97;1.73;;;;;;;;;;4360603;32;20667;-79
2020/12/22 05:43:45;;;;;;;7.60;1.60;;;;;;;;;;4346812;33;20182;-79
2020/12/22 05:46:10;;;;;;;7.90;1.40;;;;;;;;;;4346988;33;20186;-79
2020/12/22 05:48:39;;;;;;;12.50;1.83;;;;;;;;;;4347224;33;20206;-79
2020/12/22 05:51:07;;;;;;;7.68;1.83;;;;;;;;;;4360660;32;20162;-79
2020/12/22 05:53:45;;;;;;;8.10;1.50;;;;;;;;;;4360486;32;20139;-79
2020/12/22 05:56:14;;;;;;;8.90;1.90;;;;;;;;;;4362132;32;20135;-79
2020/12/22 05:58:40;;;;;;;8.45;1.50;;;;;;;;;;4347764;33;20159;-79
2020/12/22 06:01:05;;;;;;;7.22;1.67;;;;;;;;;;4346713;33;20541;-79
2020/12/22 06:03:30;;;;;;;7.60;1.45;;;;;;;;;;4347781;33;20156;-79
2020/12/22 06:05:56;;;;;;;7.78;1.30;;;;;;;;;;4346674;33;20198;-79
2020/12/22 06:08:27;;;;;;;7.25;1.30;;;;;;;;;;4347081;33;20159;-79
2020/12/22 06:10:52;;;;;;;10.40;1.40;;;;;;;;;;4346855;33;20144;-77
2020/12/22 06:13:21;;;;;;;8.38;1.67;;;;;;;;;;4343901;33;20159;-79
2020/12/22 06:15:46;;;;;;;9.52;1.55;;;;;;;;;;4347110;33;20302;-79
2020/12/22 06:18:11;;;;;;;9.18;1.40;;;;;;;;;;4364912;32;20250;-79
2020/12/22 06:20:37;;;;;;;11.25;1.52;;;;;;;;;;4351173;33;20151;-79
2020/12/22 06:23:06;;;;;;;10.48;1.85;;;;;;;;;;4351131;33;20197;-79
2020/12/22 06:25:33;;;;;;;6.40;1.73;;;;;;;;;;4336414;33;20171;-79
2020/12/22 06:27:58;;;;;;;9.43;1.87;;;;;;;;;;4350345;33;20211;-79
2020/12/22 06:30:43;;;;;;;9.10;1.80;;;;;;;;;;4350461;33;20158;-79
2020/12/22 06:33:19;;;;;;;6.05;1.55;;;;;;;;;;4348418;33;20190;-79
2020/12/22 06:36:04;;;;;;;8.43;1.73;;;;;;;;;;4349796;33;20181;-78
2020/12/22 06:38:53;;;;;;;8.80;1.50;;;;;;;;;;4336717;33;20171;-78
2020/12/22 06:41:41;;;;;;;9.85;2.12;;;;;;;;;;4330676;33;20221;-79
2020/12/22 06:44:10;;;;;;;11.93;1.80;;;;;;;;;;4348794;33;20199;-78
2020/12/22 06:46:36;;;;;;;11.23;1.75;;;;;;;;;;4346053;33;20206;-78
2020/12/22 06:49:02;;;;;;;9.55;1.77;;;;;;;;;;4351097;33;20162;-79
2020/12/22 06:51:37;;;;;;;6.93;1.40;;;;;;;;;;4351020;33;20576;-80
2020/12/22 06:54:03;;;;;;;6.43;1.67;;;;;;;;;;4351641;32;20489;-80
2020/12/22 06:56:57;;;;;;;8.80;1.75;;;;;;;;;;4350996;32;20163;-80
2020/12/22 06:59:42;;;;;;;11.32;1.90;;;;;;;;;;4348157;32;20208;-78
2020/12/22 07:02:31;;;;;;;13.35;1.67;;;;;;;;;;4350862;33;20473;-79
2020/12/22 07:04:59;;;;;;;8.63;1.62;;;;;;;;;;4351112;32;20253;-79
2020/12/22 07:07:44;;;;;;;16.20;2.15;;;;;;;;;;4351281;33;20228;-79
2020/12/22 07:10:10;;;;;;;8.15;1.70;;;;;;;;;;4351607;33;20170;-78
2020/12/22 07:12:36;;;;;;;10.18;1.75;;;;;;;;;;4351026;33;20221;-80
2020/12/22 07:15:02;;;;;;;7.85;1.85;;;;;;;;;;4350988;33;20635;-80
2020/12/22 07:17:28;;;;;;;8.73;1.83;;;;;;;;;;4351054;33;20171;-79
2020/12/22 07:19:55;;;;;;;7.05;1.60;;;;;;;;;;4350776;33;20232;-79
2020/12/22 07:22:22;;;;;;;14.18;2.20;;;;;;;;;;4351213;33;20159;-79
2020/12/22 07:24:47;;;;;;;11.48;1.83;;;;;;;;;;4350523;33;20175;-79
2020/12/22 07:27:13;;;;;;;14.50;2.10;;;;;;;;;;4348847;33;20185;-78
2020/12/22 07:29:39;;;;;;;9.90;1.87;;;;;;;;;;4348174;33;20166;-79
2020/12/22 07:32:04;;;;;;;15.93;2.40;;;;;;;;;;4362352;32;20487;-80
2020/12/22 07:34:31;;;;;;;9.15;1.95;;;;;;;;;;4348244;33;20182;-79
2020/12/22 07:37:06;;;;;;;16.45;2.50;;;;;;;;;;4348702;33;20214;-79
2020/12/22 07:39:32;;;;;;;9.93;2.20;;;;;;;;;;4349018;33;20216;-79
2020/12/22 07:42:06;;;;;;;13.02;2.15;;;;;;;;;;4349118;33;20159;-79
2020/12/22 07:44:31;;;;;;;13.93;2.47;;;;;;;;;;4348777;33;20209;-78
2020/12/22 07:46:57;;;;;;;15.18;2.83;;;;;;;;;;4361605;32;20627;-78
2020/12/22 07:49:22;;;;;;;19.08;2.70;;;;;;;;;;4348433;33;20236;-78
2020/12/22 07:51:48;;;;;;;14.60;2.37;;;;;;;;;;4348288;33;20159;-79
2020/12/22 07:54:14;;;;;;;18.00;2.90;;;;;;;;;;4361929;32;20174;-78
2020/12/22 07:56:42;;;;;;;14.98;2.37;;;;;;;;;;4348826;33;20483;-78
2020/12/22 07:59:12;;;;;;;15.55;2.85;;;;;;;;;;4348257;33;20163;-77
2020/12/22 08:01:42;;;;;;;17.33;3.15;;;;;;;;;;4348017;33;20167;-79
2020/12/22 08:04:17;;;;;;;17.05;3.50;;;;;;;;;;4347924;33;20197;-79
2020/12/22 08:06:59;;;;;;;18.12;3.17;;;;;;;;;;4347906;33;20181;-80
2020/12/22 08:09:32;;;;;;;19.12;3.40;;;;;;;;;;4348682;33;20241;-79
2020/12/22 08:11:58;;;;;;;20.75;3.30;;;;;;;;;;4350111;33;20160;-79
2020/12/22 08:14:24;;;;;;;19.87;3.92;;;;;;;;;;4348093;33;20194;-79
2020/12/22 08:16:58;;;;;;;23.00;3.50;;;;;;;;;;4347930;33;20178;-80
2020/12/22 08:19:23;;;;;;;19.00;3.70;;;;;;;;;;4348103;33;20188;-79
2020/12/22 08:21:49;;;;;;;20.67;3.95;;;;;;;;;;4353009;33;20171;-77
2020/12/22 08:24:16;;;;;;;28.08;4.03;;;;;;;;;;4346409;33;20202;-78
2020/12/22 08:26:47;;;;;;;25.27;3.25;;;;;;;;;;4347183;33;20160;-78
2020/12/22 08:29:13;;;;;;;22.30;3.80;;;;;;;;;;4347714;33;20167;-78
2020/12/22 08:31:39;;;;;;;27.48;4.35;;;;;;;;;;4347494;33;20189;-78
2020/12/22 08:34:05;;;;;;;29.05;4.18;;;;;;;;;;4347201;33;20159;-78
2020/12/22 08:36:30;;;;;;;25.90;4.05;;;;;;;;;;4347002;32;20154;-77
2020/12/22 08:39:19;;;;;;;24.40;4.20;;;;;;;;;;4346831;33;20197;-77
2020/12/22 08:41:52;;;;;;;29.48;4.03;;;;;;;;;;4344854;33;20245;-76
2020/12/22 08:44:17;;;;;;;24.48;3.67;;;;;;;;;;4346129;33;20163;-79
2020/12/22 08:46:43;;;;;;;20.50;4.00;;;;;;;;;;4346614;33;20178;-78
2020/12/22 08:49:13;;;;;;;29.20;4.00;;;;;;;;;;4349456;32;20565;-78
2020/12/22 08:51:38;;;;;;;21.15;4.25;;;;;;;;;;4347083;33;20523;-77
2020/12/22 08:54:04;;;;;;;29.25;4.12;;;;;;;;;;4347012;33;20200;-77
2020/12/22 08:56:29;;;;;;;31.58;4.37;;;;;;;;;;4346324;33;20222;-77
2020/12/22 08:58:56;;;;;;;29.63;4.68;;;;;;;;;;4346092;33;20171;-77
2020/12/22 09:01:22;;;;;;;19.48;3.90;;;;;;;;;;4346482;33;20175;-77
2020/12/22 09:03:52;;;;;;;30.92;5.05;;;;;;;;;;4346581;33;20171;-77
2020/12/22 09:06:18;;;;;;;28.83;4.15;;;;;;;;;;4342877;33;20197;-77
2020/12/22 09:08:43;;;;;;;33.72;4.80;;;;;;;;;;4345978;33;20600;-78
2020/12/22 09:11:18;;;;;;;27.80;5.37;;;;;;;;;;4344894;33;20504;-77
2020/12/22 09:13:44;;;;;;;35.13;5.68;;;;;;;;;;4343671;33;20226;-76
2020/12/22 09:16:09;;;;;;;36.90;6.12;;;;;;;;;;4342278;33;20155;-78
2020/12/22 09:18:34;;;;;;;27.05;5.87;;;;;;;;;;4345875;33;20289;-78
2020/12/22 09:21:00;;;;;;;32.40;6.12;;;;;;;;;;4346732;33;20159;-77
2020/12/22 09:23:29;;;;;;;24.35;3.85;;;;;;;;;;4360161;32;20584;-76
2020/12/22 09:25:54;;;;;;;16.85;3.22;;;;;;;;;;4346135;33;20218;-77
2020/12/22 09:28:20;;;;;;;15.38;2.70;;;;;;;;;;4359834;32;20143;-77
2020/12/22 09:30:45;;;;;;;17.08;3.20;;;;;;;;;;4359376;33;20300;-77
2020/12/22 09:33:11;;;;;;;13.52;2.33;;;;;;;;;;4346811;33;20224;-77
2020/12/22 09:35:36;;;;;;;8.75;2.12;;;;;;;;;;4346109;33;20246;-78
2020/12/22 09:38:01;;;;;;;11.80;2.40;;;;;;;;;;4346370;33;20262;-77
2020/12/22 09:40:26;;;;;;;12.98;2.50;;;;;;;;;;4359537;32;20159;-77
2020/12/22 09:42:52;;;;;;;11.05;2.37;;;;;;;;;;4346580;33;20193;-77
2020/12/22 09:45:23;;;;;;;9.30;2.35;;;;;;;;;;4344335;33;20175;-77
2020/12/22 09:47:48;;;;;;;15.30;2.83;;;;;;;;;;4357796;33;20604;-78
2020/12/22 09:50:13;;;;;;;15.18;3.00;;;;;;;;;;4346089;33;20178;-77
2020/12/22 09:52:38;;;;;;;13.48;3.03;;;;;;;;;;4346072;33;20164;-78
2020/12/22 09:55:04;;;;;;;16.12;3.47;;;;;;;;;;4349238;32;20208;-77
2020/12/22 09:57:29;;;;;;;10.57;3.15;;;;;;;;;;4359130;32;20222;-78
2020/12/22 09:59:54;;;;;;;11.70;2.72;;;;;;;;;;4345983;33;20242;-77
2020/12/22 10:02:19;;;;;;;12.23;2.40;;;;;;;;;;4345864;33;20204;-77
2020/12/22 10:04:45;;;;;;;7.57;2.75;;;;;;;;;;4345647;33;20167;-77
2020/12/22 10:07:10;;;;;;;13.02;2.85;;;;;;;;;;4359506;32;20174;-77
2020/12/22 10:09:38;;;;;;;9.90;2.97;;;;;;;;;;4345946;33;20203;-78
2020/12/22 10:12:03;;;;;;;12.07;3.55;;;;;;;;;;4359767;32;20265;-77
2020/12/22 10:14:29;;;;;;;14.95;4.65;;;;;;;;;;4346367;33;20604;-78
2020/12/22 10:16:54;;;;;;;12.35;4.85;;;;;;;;;;4345842;33;20221;-76
2020/12/22 10:19:19;;;;;;;10.45;4.50;;;;;;;;;;4359260;33;20148;-76
2020/12/22 10:21:44;;;;;;;13.10;5.15;;;;;;;;;;4345661;33;20159;-77
2020/12/22 10:24:10;;;;;;;11.55;4.65;;;;;;;;;;4346466;33;20318;-77
2020/12/22 10:26:38;;;;;;;16.70;5.78;;;;;;;;;;4360788;33;20218;-77
2020/12/22 10:29:03;;;;;;;15.45;6.00;;;;;;;;;;4344826;33;20193;-78
2020/12/22 10:31:28;;;;;;;18.20;6.93;;;;;;;;;;4341936;33;20217;-77
2020/12/22 10:33:56;;;;;;;20.10;7.43;;;;;;;;;;4356183;33;20170;-77
2020/12/22 10:36:21;;;;;;;21.52;7.35;;;;;;;;;;4345760;33;20163;-78
2020/12/22 10:38:47;;;;;;;22.27;7.65;;;;;;;;;;4359536;33;20693;-77
2020/12/22 10:41:12;;;;;;;21.00;7.20;;;;;;;;;;4345826;33;20193;-77
2020/12/22 10:43:38;;;;;;;19.90;6.07;;;;;;;;;;4359610;33;20181;-76
2020/12/22 10:46:03;;;;;;;19.60;7.65;;;;;;;;;;4366536;33;20144;-75
2020/12/22 10:48:29;;;;;;;21.05;7.65;;;;;;;;;;4360186;33;20198;-78
2020/12/22 10:50:54;;;;;;;14.45;7.20;;;;;;;;;;4359218;33;20220;-77
2020/12/22 10:53:20;;;;;;;16.12;7.22;;;;;;;;;;4346065;33;20166;-77
2020/12/22 10:55:45;;;;;;;14.82;6.95;;;;;;;;;;4345599;33;20690;-77
2020/12/22 10:58:14;;;;;;;10.65;5.80;;;;;;;;;;4358959;33;20488;-76
2020/12/22 11:00:39;;;;;;;15.50;5.97;;;;;;;;;;4346139;33;20205;-77
2020/12/22 11:03:07;;;;;;;17.12;5.87;;;;;;;;;;4361893;32;20584;-77
2020/12/22 11:08:21;;;;;;;12.75;4.93;;;;;;;;;;4361469;32;20221;-77
2020/12/22 11:10:49;;;;;;;11.20;4.40;;;;;;;;;;4361353;33;20618;-78
2020/12/22 11:13:15;;;;;;;17.87;4.80;;;;;;;;;;4348184;33;20605;-79
2020/12/22 11:15:40;;;;;;;13.50;4.03;;;;;;;;;;4348932;33;20163;-77
2020/12/22 11:18:05;;;;;;;11.05;4.55;;;;;;;;;;4348300;32;20266;-82
2020/12/22 11:20:30;;;;;;;13.80;4.37;;;;;;;;;;4346289;33;20174;-77
2020/12/22 11:22:56;;;;;;;11.15;3.40;;;;;;;;;;4347501;32;20267;-77
2020/12/22 11:25:21;;;;;;;12.75;3.92;;;;;;;;;;4351355;33;20171;-76
2020/12/22 11:27:46;;;;;;;15.88;3.22;;;;;;;;;;4361284;32;20182;-77
2020/12/22 11:30:12;;;;;;;6.80;3.40;;;;;;;;;;4361167;32;20170;-78
2020/12/22 11:32:37;;;;;;;11.07;3.87;;;;;;;;;;4359538;32;20183;-80
2020/12/22 11:35:06;;;;;;;13.27;4.00;;;;;;;;;;4347021;33;20214;-77
2020/12/22 11:37:31;;;;;;;11.73;4.15;;;;;;;;;;4357386;32;20174;-78
2020/12/22 11:39:56;;;;;;;11.77;3.60;;;;;;;;;;4361441;32;20174;-77
2020/12/22 11:42:22;;;;;;;12.70;4.28;;;;;;;;;;4361116;32;20151;-77
2020/12/22 11:44:47;;;;;;;8.10;3.33;;;;;;;;;;4361239;32;20139;-78
2020/12/22 11:47:13;;;;;;;12.00;3.95;;;;;;;;;;4361930;32;20161;-78
2020/12/22 11:49:38;;;;;;;12.88;3.50;;;;;;;;;;4360403;32;20205;-78
2020/12/22 11:52:03;;;;;;;11.05;3.03;;;;;;;;;;4361469;32;20139;-75
2020/12/22 11:54:29;;;;;;;6.80;2.87;;;;;;;;;;4348648;33;20225;-78
2020/12/22 11:56:54;;;;;;;6.97;2.50;;;;;;;;;;4347743;33;20767;-78
2020/12/22 11:59:19;;;;;;;8.70;2.60;;;;;;;;;;4346936;33;20213;-78
2020/12/22 12:01:45;;;;;;;7.43;2.40;;;;;;;;;;4360354;33;20151;-77
2020/12/22 12:04:10;;;;;;;8.40;1.87;;;;;;;;;;4360707;32;20182;-78
2020/12/22 12:06:35;;;;;;;8.65;2.17;;;;;;;;;;4359971;32;20191;-78
2020/12/22 12:09:01;;;;;;;10.05;2.00;;;;;;;;;;4346464;33;20659;-77
2020/12/22 12:11:26;;;;;;;9.82;2.45;;;;;;;;;;4364193;32;20191;-77
2020/12/22 12:13:51;;;;;;;7.85;2.33;;;;;;;;;;4346488;33;20175;-78
2020/12/22 12:16:18;;;;;;;10.30;2.78;;;;;;;;;;4360035;32;20135;-79
2020/12/22 12:18:43;;;;;;;10.82;3.33;;;;;;;;;;4360836;32;20568;-79
2020/12/22 12:21:09;;;;;;;8.30;2.70;;;;;;;;;;4361599;32;20139;-78
2020/12/22 12:23:34;;;;;;;8.30;3.08;;;;;;;;;;4360882;32;20167;-78
2020/12/22 12:25:59;;;;;;;6.00;2.28;;;;;;;;;;4360614;32;20167;-78
2020/12/22 12:28:24;;;;;;;6.87;2.50;;;;;;;;;;4360543;32;20147;-78
2020/12/22 12:30:50;;;;;;;9.23;2.50;;;;;;;;;;4360461;32;20193;-78
2020/12/22 12:33:15;;;;;;;6.55;2.10;;;;;;;;;;4360376;32;20185;-80
2020/12/22 12:35:40;;;;;;;8.65;2.10;;;;;;;;;;4363403;32;20516;-77
2020/12/22 12:38:06;;;;;;;7.53;2.45;;;;;;;;;;4363811;32;20223;-79
2020/12/22 12:40:31;;;;;;;8.90;2.40;;;;;;;;;;4361366;32;20212;-78
2020/12/22 12:42:56;;;;;;;3.90;2.10;;;;;;;;;;4360755;32;20240;-78
2020/12/22 12:45:31;;;;;;;7.18;2.35;;;;;;;;;;4360585;33;20139;-79
2020/12/22 12:47:56;;;;;;;10.88;2.70;;;;;;;;;;4362880;32;20177;-79
2020/12/22 12:50:22;;;;;;;9.55;2.83;;;;;;;;;;4368198;32;20159;-79
2020/12/22 12:52:47;;;;;;;10.75;2.90;;;;;;;;;;4376199;32;20177;-78
2020/12/22 12:55:12;;;;;;;8.07;2.83;;;;;;;;;;4360592;32;20152;-77
2020/12/22 12:57:37;;;;;;;7.15;2.50;;;;;;;;;;4360696;32;20147;-78
2020/12/22 13:00:04;;;;;;;7.47;2.25;;;;;;;;;;4361369;32;20190;-78
2020/12/22 13:02:29;;;;;;;5.55;2.30;;;;;;;;;;4360082;32;20207;-78
2020/12/22 13:05:05;;;;;;;5.40;1.92;;;;;;;;;;4360170;32;20591;-79
2020/12/22 13:07:33;;;;;;;7.90;2.08;;;;;;;;;;4360168;33;20250;-79
2020/12/22 13:09:59;;;;;;;6.80;2.17;;;;;;;;;;4360375;32;20198;-79
2020/12/22 13:12:29;;;;;;;7.43;2.00;;;;;;;;;;4353083;32;20547;-78
2020/12/22 13:14:54;;;;;;;8.25;2.10;;;;;;;;;;4331746;33;20202;-78
2020/12/22 13:17:22;;;;;;;8.07;2.30;;;;;;;;;;4345473;33;20144;-78
2020/12/22 13:19:48;;;;;;;9.65;2.40;;;;;;;;;;4345095;33;20174;-79
2020/12/22 13:22:13;;;;;;;8.45;2.30;;;;;;;;;;4345331;33;20143;-78
2020/12/22 13:24:38;;;;;;;10.05;3.00;;;;;;;;;;4356858;32;20167;-78
2020/12/22 13:27:04;;;;;;;10.32;2.60;;;;;;;;;;4359891;32;20166;-80
2020/12/22 13:29:29;;;;;;;12.23;3.08;;;;;;;;;;4360273;32;20131;-78
2020/12/22 13:31:55;;;;;;;9.15;2.60;;;;;;;;;;4360285;32;20206;-78
2020/12/22 13:34:20;;;;;;;9.75;2.55;;;;;;;;;;4370865;32;20220;-80
2020/12/22 13:36:49;;;;;;;10.10;3.30;;;;;;;;;;4373926;32;20190;-78
2020/12/22 13:39:14;;;;;;;11.02;2.45;;;;;;;;;;4360307;32;20251;-80
2020/12/22 13:41:39;;;;;;;7.65;2.60;;;;;;;;;;4358123;32;20143;-78
2020/12/22 13:44:05;;;;;;;9.57;2.30;;;;;;;;;;4346146;32;20217;-77
2020/12/22 13:46:35;;;;;;;10.63;2.55;;;;;;;;;;4366040;32;20165;-77
2020/12/22 13:49:01;;;;;;;8.95;2.78;;;;;;;;;;4343297;32;20609;-78
2020/12/22 13:51:26;;;;;;;10.25;2.80;;;;;;;;;;4330798;33;20228;-77
2020/12/22 13:53:52;;;;;;;10.18;3.17;;;;;;;;;;4339910;33;20159;-78
2020/12/22 13:56:20;;;;;;;10.65;2.80;;;;;;;;;;4346016;33;20166;-78
2020/12/22 13:58:46;;;;;;;12.88;3.20;;;;;;;;;;4359664;32;20150;-78
2020/12/22 14:01:11;;;;;;;11.30;3.40;;;;;;;;;;4346666;33;20501;-78
2020/12/22 14:03:37;;;;;;;11.70;3.62;;;;;;;;;;4345540;33;20647;-79
2020/12/22 14:06:02;;;;;;;16.98;3.67;;;;;;;;;;4358981;32;20162;-79
2020/12/22 14:08:27;;;;;;;10.35;2.45;;;;;;;;;;4345884;33;20660;-79
2020/12/22 14:10:53;;;;;;;10.80;2.90;;;;;;;;;;4359821;33;20189;-79
2020/12/22 14:13:18;;;;;;;11.45;3.10;;;;;;;;;;4358701;33;20174;-78
2020/12/22 14:15:46;;;;;;;8.48;2.60;;;;;;;;;;4346092;33;20205;-78
2020/12/22 14:18:12;;;;;;;10.75;2.78;;;;;;;;;;4352200;33;21793;-78
2020/12/22 14:20:38;;;;;;;10.85;2.60;;;;;;;;;;4362564;32;20176;-78
2020/12/22 14:23:03;;;;;;;6.75;2.42;;;;;;;;;;4357603;32;20159;-78
2020/12/22 14:25:28;;;;;;;10.38;2.60;;;;;;;;;;4358533;32;20242;-78
2020/12/22 14:27:54;;;;;;;6.15;2.15;;;;;;;;;;4359019;33;20243;-80
2020/12/22 14:30:19;;;;;;;7.25;2.58;;;;;;;;;;4345709;33;20166;-79
2020/12/22 14:32:44;;;;;;;11.07;2.67;;;;;;;;;;4345913;33;20174;-79
2020/12/22 14:35:09;;;;;;;16.50;3.05;;;;;;;;;;4346821;33;20827;-79
2020/12/22 14:37:35;;;;;;;5.72;2.30;;;;;;;;;;4347792;33;20266;-78